createdAt,value
2017-11-11T00:01:43.713Z,100022.91
2017-11-11T00:04:10.011Z,100027.08
2017-11-11T00:06:36.264Z,100025.06
2017-11-11T00:09:02.518Z,100023.73
2017-11-11T00:11:28.798Z,100026.30
2017-11-11T00:13:55.024Z,100028.95
2017-11-11T00:16:21.242Z,100025.56
2017-11-11T00:18:47.507Z,100031.14
2017-11-11T00:21:13.740Z,100029.39
2017-11-11T00:23:39.970Z,100015.14
2017-11-11T00:26:06.225Z,100017.64
2017-11-11T00:28:32.468Z,100014.69
2017-11-11T00:30:58.706Z,100016.15
2017-11-11T00:33:24.973Z,100014.55
2017-11-11T00:35:51.193Z,100014.06
2017-11-11T00:38:17.417Z,100009.98
2017-11-11T00:40:43.683Z,100007.44
2017-11-11T00:43:09.943Z,100007.78
2017-11-11T00:45:36.167Z,100005.50
2017-11-11T00:48:02.440Z,99998.52
2017-11-11T00:50:28.680Z,99998.16
2017-11-11T00:52:54.920Z,99997.62
2017-11-11T00:55:21.200Z,99999.00
2017-11-11T00:57:47.445Z,100004.67
2017-11-11T01:00:13.683Z,99999.31
2017-11-11T01:02:39.963Z,100002.30
2017-11-11T01:05:06.191Z,99997.91
2017-11-11T01:07:32.441Z,100003.50
2017-11-11T01:09:58.728Z,99997.77
2017-11-11T01:12:24.961Z,99994.22
2017-11-11T01:14:51.197Z,99989.31
2017-11-11T01:17:17.497Z,99997.73
2017-11-11T01:19:43.722Z,100000.52
2017-11-11T01:22:09.973Z,99987.44
2017-11-11T01:24:36.248Z,99986.38
2017-11-11T01:27:02.518Z,99990.13
2017-11-11T01:29:28.750Z,99994.30
2017-11-11T01:31:55.028Z,99983.53
2017-11-11T01:34:21.252Z,99983.22
2017-11-11T01:36:47.486Z,99978.45
2017-11-11T01:39:13.767Z,99979.52
2017-11-11T01:41:40.010Z,99981.84
2017-11-11T01:44:06.259Z,99981.89
2017-11-11T01:46:32.538Z,99974.24
2017-11-11T01:48:58.762Z,99972.04
2017-11-11T01:51:24.988Z,99964.59
2017-11-11T01:53:51.251Z,99963.27
2017-11-11T01:56:17.503Z,99960.24
2017-11-11T01:58:43.746Z,99956.48
2017-11-11T02:01:10.031Z,99954.89
2017-11-11T02:03:36.258Z,99944.69
2017-11-11T02:06:02.488Z,99942.63
2017-11-11T02:08:28.828Z,99941.58
2017-11-11T02:10:55.091Z,99943.69
2017-11-11T02:13:21.348Z,99942.27
2017-11-11T02:15:47.629Z,99956.04
2017-11-11T02:18:13.869Z,99959.23
2017-11-11T02:20:40.107Z,99954.47
2017-11-11T02:23:06.378Z,99957.21
2017-11-11T02:25:32.647Z,99955.00
2017-11-11T02:27:58.898Z,99954.56
2017-11-11T02:30:25.164Z,99953.30
2017-11-11T02:32:51.400Z,99952.47
2017-11-11T02:35:17.657Z,99941.88
2017-11-11T02:37:43.943Z,99952.64
2017-11-11T02:40:10.176Z,99953.49
2017-11-11T02:42:36.453Z,99949.02
2017-11-11T02:45:02.759Z,99940.80
2017-11-11T02:47:29.001Z,99941.69
2017-11-11T02:49:55.245Z,99943.59
2017-11-11T02:52:21.644Z,99946.89
2017-11-11T02:54:47.927Z,99951.53
2017-11-11T02:57:14.179Z,99954.91
2017-11-11T02:59:40.460Z,99948.78
2017-11-11T03:02:06.685Z,99945.08
2017-11-11T03:04:32.901Z,99946.63
2017-11-11T03:06:59.198Z,99939.33
2017-11-11T03:09:25.408Z,99944.39
2017-11-11T03:11:51.643Z,99934.11
2017-11-11T03:14:17.923Z,99932.02
2017-11-11T03:16:44.184Z,99924.14
2017-11-11T03:19:10.427Z,99920.08
2017-11-11T03:21:36.711Z,99914.05
2017-11-11T03:24:02.932Z,99900.05
2017-11-11T03:26:29.173Z,99902.78
2017-11-11T03:28:55.436Z,99898.39
2017-11-11T03:31:21.666Z,99902.17
2017-11-11T03:33:47.898Z,99900.76
2017-11-11T03:36:14.163Z,99893.45
2017-11-11T03:38:40.399Z,99893.39
2017-11-11T03:41:06.634Z,99900.26
2017-11-11T03:43:32.895Z,99894.48
2017-11-11T03:45:59.132Z,99892.36
2017-11-11T03:48:25.362Z,99897.93
2017-11-11T03:50:51.635Z,99894.92
2017-11-11T03:53:17.860Z,99898.45
2017-11-11T03:55:44.095Z,99897.73
2017-11-11T03:58:10.365Z,99898.73
2017-11-11T04:00:36.614Z,99903.09
2017-11-11T04:03:02.995Z,99900.92
2017-11-11T04:05:29.269Z,99904.35
2017-11-11T04:07:55.493Z,99903.75
2017-11-11T04:10:21.732Z,99906.52
2017-11-11T04:12:48.010Z,99903.66
2017-11-11T04:15:14.258Z,99901.01
2017-11-11T04:17:40.489Z,99901.68
2017-11-11T04:20:06.772Z,99908.16
2017-11-11T04:22:33.000Z,99910.80
2017-11-11T04:24:59.230Z,99913.47
2017-11-11T04:27:25.494Z,99908.66
2017-11-11T04:29:51.724Z,99911.88
2017-11-11T04:32:17.960Z,99905.83
2017-11-11T04:34:44.225Z,99901.36
2017-11-11T04:37:10.444Z,99902.05
2017-11-11T04:39:36.671Z,99899.05
2017-11-11T04:42:02.949Z,99898.28
2017-11-11T04:44:29.193Z,99903.03
2017-11-11T04:46:55.426Z,99905.83
2017-11-11T04:49:21.697Z,99908.48
2017-11-11T04:51:47.952Z,99900.47
2017-11-11T04:54:14.175Z,99903.20
2017-11-11T04:56:40.450Z,99896.52
2017-11-11T04:59:06.695Z,99902.48
2017-11-11T05:01:32.938Z,99901.73
2017-11-11T05:03:59.221Z,99903.55
2017-11-11T05:06:25.493Z,99910.06
2017-11-11T05:08:51.725Z,99913.62
2017-11-11T05:11:17.993Z,99913.92
2017-11-11T05:13:44.206Z,99920.02
2017-11-11T05:16:10.425Z,99913.68
2017-11-11T05:18:36.704Z,99917.33
2017-11-11T05:21:02.937Z,99926.70
2017-11-11T05:23:29.168Z,99934.43
2017-11-11T05:25:55.446Z,99936.58
2017-11-11T05:28:21.703Z,99933.39
2017-11-11T05:30:47.917Z,99932.44
2017-11-11T05:33:14.168Z,99938.29
2017-11-11T05:35:40.384Z,99939.53
2017-11-11T05:38:06.601Z,99940.94
2017-11-11T05:40:32.874Z,99939.79
2017-11-11T05:42:59.137Z,99936.12
2017-11-11T05:45:25.364Z,99938.09
2017-11-11T05:47:51.610Z,99940.94
2017-11-11T05:50:17.818Z,99941.75
2017-11-11T05:52:44.036Z,99934.38
2017-11-11T05:55:10.378Z,99935.92
2017-11-11T05:57:36.608Z,99942.59
2017-11-11T06:00:02.822Z,99932.96
2017-11-11T06:02:29.108Z,99932.21
2017-11-11T06:04:55.338Z,99926.79
2017-11-11T06:07:21.571Z,99926.41
2017-11-11T06:09:47.852Z,99928.97
2017-11-11T06:12:14.089Z,99931.23
2017-11-11T06:14:40.316Z,99927.69
2017-11-11T06:17:06.593Z,99928.70
2017-11-11T06:19:32.820Z,99930.52
2017-11-11T06:21:59.060Z,99934.96
2017-11-11T06:24:25.318Z,99927.31
2017-11-11T06:26:51.550Z,99931.50
2017-11-11T06:29:17.803Z,99930.55
2017-11-11T06:31:44.283Z,99921.59
2017-11-11T06:34:10.516Z,99926.80
2017-11-11T06:36:36.746Z,99924.75
2017-11-11T06:39:03.034Z,99918.86
2017-11-11T06:41:29.287Z,99920.74
2017-11-11T06:43:55.528Z,99926.88
2017-11-11T06:46:21.794Z,99920.33
2017-11-11T06:48:48.097Z,99918.48
2017-11-11T06:51:14.345Z,99922.42
2017-11-11T06:53:40.639Z,99928.27
2017-11-11T06:56:06.880Z,99917.89
2017-11-11T06:58:33.123Z,99920.77
2017-11-11T07:00:59.418Z,99927.14
2017-11-11T07:03:25.674Z,99931.86
2017-11-11T07:05:51.920Z,99930.56
2017-11-11T07:08:18.215Z,99927.43
2017-11-11T07:10:44.439Z,99934.09
2017-11-11T07:13:10.679Z,99918.88
2017-11-11T07:15:36.963Z,99921.92
2017-11-11T07:18:03.206Z,99929.30
2017-11-11T07:20:29.456Z,99930.31
2017-11-11T07:22:55.728Z,99930.02
2017-11-11T07:25:21.973Z,99929.37
2017-11-11T07:27:48.197Z,99929.49
2017-11-11T07:30:14.517Z,99919.25
2017-11-11T07:32:40.794Z,99922.16
2017-11-11T07:35:07.071Z,99915.91
2017-11-11T07:37:33.338Z,99912.69
2017-11-11T07:39:59.573Z,99904.50
2017-11-11T07:42:25.803Z,99904.33
2017-11-11T07:44:52.099Z,99905.77
2017-11-11T07:47:18.342Z,99900.78
2017-11-11T07:49:44.581Z,99899.83
2017-11-11T07:52:10.880Z,99893.84
2017-11-11T07:54:37.126Z,99897.47
2017-11-11T07:57:03.375Z,99893.66
2017-11-11T07:59:29.671Z,99887.78
2017-11-11T08:01:55.910Z,99889.83
2017-11-11T08:04:22.180Z,99885.16
2017-11-11T08:06:48.454Z,99894.34
2017-11-11T08:09:14.710Z,99886.41
2017-11-11T08:11:40.949Z,99877.01
2017-11-11T08:14:07.218Z,99874.25
2017-11-11T08:16:33.474Z,99880.14
2017-11-11T08:18:59.731Z,99873.81
2017-11-11T08:21:26.011Z,99873.47
2017-11-11T08:23:52.264Z,99862.57
2017-11-11T08:26:18.529Z,99870.91
2017-11-11T08:28:44.805Z,99869.54
2017-11-11T08:31:11.034Z,99868.05
2017-11-11T08:33:37.267Z,99874.48
2017-11-11T08:36:03.559Z,99878.32
2017-11-11T08:38:29.797Z,99875.49
2017-11-11T08:40:56.038Z,99877.83
2017-11-11T08:43:22.345Z,99881.61
2017-11-11T08:45:48.590Z,99888.44
2017-11-11T08:48:14.941Z,99890.72
2017-11-11T08:50:41.204Z,99882.78
2017-11-11T08:53:07.453Z,99899.31
2017-11-11T08:55:33.680Z,99896.92
2017-11-11T08:57:59.944Z,99896.42
2017-11-11T09:00:26.190Z,99894.08
2017-11-11T09:02:52.436Z,99895.13
2017-11-11T09:05:18.761Z,99893.17
2017-11-11T09:07:45.015Z,99889.08
2017-11-11T09:10:11.253Z,99888.00
2017-11-11T09:12:37.505Z,99884.10
2017-11-11T09:15:03.723Z,99887.37
2017-11-11T09:17:29.995Z,99886.84
2017-11-11T09:19:56.265Z,99879.80
2017-11-11T09:22:22.510Z,99883.30
2017-11-11T09:24:48.766Z,99873.75
2017-11-11T09:27:15.061Z,99867.69
2017-11-11T09:29:41.293Z,99880.24
2017-11-11T09:32:07.534Z,99870.41
2017-11-11T09:34:33.809Z,99871.13
2017-11-11T09:37:00.041Z,99862.11
2017-11-11T09:39:26.284Z,99864.20
2017-11-11T09:41:52.566Z,99864.27
2017-11-11T09:44:18.872Z,99866.44
2017-11-11T09:46:45.116Z,99863.62
2017-11-11T09:49:11.653Z,99857.56
2017-11-11T09:51:37.889Z,99857.47
2017-11-11T09:54:04.129Z,99858.69
2017-11-11T09:56:30.426Z,99851.55
2017-11-11T09:58:56.670Z,99847.93
2017-11-11T10:01:22.926Z,99845.29
2017-11-11T10:03:49.249Z,99852.03
2017-11-11T10:06:15.502Z,99849.22
2017-11-11T10:08:41.736Z,99838.22
2017-11-11T10:11:08.027Z,99847.93
2017-11-11T10:13:34.278Z,99834.18
2017-11-11T10:16:00.566Z,99839.73
2017-11-11T10:18:26.843Z,99835.98
2017-11-11T10:20:53.072Z,99834.65
2017-11-11T10:23:19.313Z,99835.52
2017-11-11T10:25:45.597Z,99823.70
2017-11-11T10:28:11.891Z,99818.92
2017-11-11T10:30:38.145Z,99817.92
2017-11-11T10:33:04.396Z,99819.14
2017-11-11T10:35:30.659Z,99820.13
2017-11-11T10:37:56.911Z,99811.64
2017-11-11T10:40:23.167Z,99811.68
2017-11-11T10:42:49.516Z,99811.04
2017-11-11T10:45:15.753Z,99812.24
2017-11-11T10:47:42.012Z,99806.62
2017-11-11T10:50:08.281Z,99810.73
2017-11-11T10:52:34.528Z,99800.67
2017-11-11T10:55:00.815Z,99799.37
2017-11-11T10:57:27.053Z,99794.15
2017-11-11T10:59:53.284Z,99798.09
2017-11-11T11:02:19.570Z,99796.77
2017-11-11T11:04:45.811Z,99796.36
2017-11-11T11:07:12.053Z,99797.78
2017-11-11T11:09:38.405Z,99793.57
2017-11-11T11:12:04.660Z,99791.46
2017-11-11T11:14:30.909Z,99788.48
2017-11-11T11:16:57.173Z,99796.22
2017-11-11T11:19:23.384Z,99782.85
2017-11-11T11:21:49.631Z,99780.66
2017-11-11T11:24:15.919Z,99776.56
2017-11-11T11:26:42.147Z,99773.41
2017-11-11T11:29:08.395Z,99768.19
2017-11-11T11:31:34.686Z,99753.83
2017-11-11T11:34:00.946Z,99755.58
2017-11-11T11:36:27.212Z,99753.00
2017-11-11T11:38:53.488Z,99753.27
2017-11-11T11:41:19.723Z,99747.29
2017-11-11T11:43:45.966Z,99744.92
2017-11-11T11:46:12.253Z,99742.28
2017-11-11T11:48:38.499Z,99745.09
2017-11-11T11:51:04.746Z,99756.17
2017-11-11T11:53:31.020Z,99753.49
2017-11-11T11:55:57.296Z,99752.73
2017-11-11T11:58:23.543Z,99757.27
2017-11-11T12:00:49.825Z,99759.20
2017-11-11T12:03:16.071Z,99759.22
2017-11-11T12:05:42.305Z,99766.27
2017-11-11T12:08:08.568Z,99756.25
2017-11-11T12:10:34.814Z,99761.28
2017-11-11T12:13:01.064Z,99763.13
2017-11-11T12:15:27.345Z,99767.56
2017-11-11T12:17:53.591Z,99764.84
2017-11-11T12:20:19.835Z,99756.98
2017-11-11T12:22:46.133Z,99751.45
2017-11-11T12:25:12.365Z,99755.59
2017-11-11T12:27:38.592Z,99761.42
2017-11-11T12:30:04.876Z,99758.08
2017-11-11T12:32:31.162Z,99764.33
2017-11-11T12:34:57.406Z,99760.25
2017-11-11T12:37:23.729Z,99754.53
2017-11-11T12:39:49.953Z,99755.77
2017-11-11T12:42:16.202Z,99752.37
2017-11-11T12:44:42.482Z,99749.37
2017-11-11T12:47:08.720Z,99750.44
2017-11-11T12:49:34.961Z,99754.41
2017-11-11T12:52:01.245Z,99753.58
2017-11-11T12:54:27.480Z,99753.45
2017-11-11T12:56:53.715Z,99751.55
2017-11-11T12:59:19.984Z,99744.35
2017-11-11T13:01:46.231Z,99752.92
2017-11-11T13:04:12.491Z,99752.52
2017-11-11T13:06:38.755Z,99759.02
2017-11-11T13:09:04.988Z,99758.20
2017-11-11T13:11:31.229Z,99761.75
2017-11-11T13:13:57.492Z,99766.63
2017-11-11T13:16:23.718Z,99764.86
2017-11-11T13:18:49.998Z,99765.92
2017-11-11T13:21:16.271Z,99771.83
2017-11-11T13:23:42.497Z,99773.97
2017-11-11T13:26:08.741Z,99775.05
2017-11-11T13:28:35.009Z,99783.24
2017-11-11T13:31:01.254Z,99780.34
2017-11-11T13:33:27.491Z,99781.63
2017-11-11T13:35:53.775Z,99781.15
2017-11-11T13:38:20.013Z,99779.55
2017-11-11T13:40:46.237Z,99780.36
2017-11-11T13:43:12.520Z,99784.47
2017-11-11T13:45:38.744Z,99782.65
2017-11-11T13:48:04.989Z,99788.91
2017-11-11T13:50:31.288Z,99789.94
2017-11-11T13:52:57.543Z,99794.06
2017-11-11T13:55:23.767Z,99792.86
2017-11-11T13:57:50.048Z,99793.52
2017-11-11T14:00:16.267Z,99796.34
2017-11-11T14:02:42.502Z,99792.12
2017-11-11T14:05:08.772Z,99802.92
2017-11-11T14:07:35.022Z,99794.20
2017-11-11T14:10:01.265Z,99795.16
2017-11-11T14:12:27.557Z,99802.55
2017-11-11T14:14:53.802Z,99795.77
2017-11-11T14:17:20.054Z,99794.64
2017-11-11T14:19:46.314Z,99788.39
2017-11-11T14:22:12.531Z,99791.36
2017-11-11T14:24:38.753Z,99793.26
2017-11-11T14:27:05.033Z,99794.55
2017-11-11T14:29:31.263Z,99799.11
2017-11-11T14:31:57.509Z,99803.58
2017-11-11T14:34:23.784Z,99814.81
2017-11-11T14:36:50.033Z,99813.14
2017-11-11T14:39:16.257Z,99820.99
2017-11-11T14:41:42.544Z,99814.88
2017-11-11T14:44:08.788Z,99812.73
2017-11-11T14:46:35.037Z,99803.41
2017-11-11T14:49:01.325Z,99800.27
2017-11-11T14:51:27.564Z,99801.02
2017-11-11T14:53:53.819Z,99806.84
2017-11-11T14:56:20.080Z,99804.38
2017-11-11T14:58:46.317Z,99813.53
2017-11-11T15:01:12.532Z,99816.52
2017-11-11T15:03:38.818Z,99818.48
2017-11-11T15:06:05.053Z,99814.86
2017-11-11T15:08:31.277Z,99822.95
2017-11-11T15:10:57.561Z,99827.88
2017-11-11T15:13:23.813Z,99827.88
2017-11-11T15:15:50.058Z,99830.80
2017-11-11T15:18:16.343Z,99826.64
2017-11-11T15:20:42.778Z,99830.50
2017-11-11T15:23:09.011Z,99827.28
2017-11-11T15:25:35.265Z,99826.63
2017-11-11T15:28:01.515Z,99828.21
2017-11-11T15:30:27.780Z,99831.18
2017-11-11T15:32:54.056Z,99827.50
2017-11-11T15:35:20.298Z,99826.56
2017-11-11T15:37:46.538Z,99825.22
2017-11-11T15:40:12.831Z,99825.69
2017-11-11T15:42:39.079Z,99834.24
2017-11-11T15:45:05.329Z,99837.91
2017-11-11T15:47:31.619Z,99837.24
2017-11-11T15:49:57.871Z,99837.30
2017-11-11T15:52:24.120Z,99834.68
2017-11-11T15:54:50.419Z,99838.34
2017-11-11T15:57:16.657Z,99834.25
2017-11-11T15:59:42.905Z,99835.98
2017-11-11T16:02:09.194Z,99839.41
2017-11-11T16:04:35.416Z,99834.03
2017-11-11T16:07:01.679Z,99843.13
2017-11-11T16:09:27.951Z,99834.92
2017-11-11T16:11:54.211Z,99841.67
2017-11-11T16:14:20.441Z,99846.00
2017-11-11T16:16:46.716Z,99835.98
2017-11-11T16:19:12.957Z,99830.02
2017-11-11T16:21:39.226Z,99829.23
2017-11-11T16:24:05.506Z,99833.49
2017-11-11T16:26:31.724Z,99834.86
2017-11-11T16:28:57.962Z,99835.20
2017-11-11T16:31:24.240Z,99845.70
2017-11-11T16:33:50.486Z,99841.70
2017-11-11T16:36:16.753Z,99838.52
2017-11-11T16:38:43.048Z,99839.00
2017-11-11T16:41:09.317Z,99840.05
2017-11-11T16:43:35.592Z,99841.80
2017-11-11T16:46:02.218Z,99836.95
2017-11-11T16:48:28.455Z,99841.69
2017-11-11T16:50:54.680Z,99838.64
2017-11-11T16:53:20.965Z,99832.79
2017-11-11T16:55:47.189Z,99841.69
2017-11-11T16:58:13.434Z,99834.73
2017-11-11T17:00:39.730Z,99831.99
2017-11-11T17:03:05.966Z,99835.89
2017-11-11T17:05:32.231Z,99836.61
2017-11-11T17:07:58.509Z,99837.22
2017-11-11T17:10:24.761Z,99839.67
2017-11-11T17:12:50.980Z,99843.43
2017-11-11T17:15:17.252Z,99836.78
2017-11-11T17:17:43.501Z,99838.57
2017-11-11T17:20:09.722Z,99832.50
2017-11-11T17:22:36.014Z,99825.80
2017-11-11T17:25:02.294Z,99829.81
2017-11-11T17:27:28.590Z,99831.94
2017-11-11T17:29:55.850Z,99831.69
2017-11-11T17:32:22.068Z,99829.20
2017-11-11T17:34:48.286Z,99832.28
2017-11-11T17:37:14.592Z,99828.71
2017-11-11T17:39:40.833Z,99827.71
2017-11-11T17:42:07.091Z,99827.13
2017-11-11T17:44:33.407Z,99827.80
2017-11-11T17:46:59.621Z,99828.84
2017-11-11T17:49:25.863Z,99830.98
2017-11-11T17:51:52.128Z,99830.06
2017-11-11T17:54:18.374Z,99829.72
2017-11-11T17:56:44.618Z,99836.36
2017-11-11T17:59:10.881Z,99831.94
2017-11-11T18:01:37.097Z,99832.03
2017-11-11T18:04:03.332Z,99834.42
2017-11-11T18:06:29.612Z,99834.94
2017-11-11T18:08:55.843Z,99829.25
2017-11-11T18:11:22.091Z,99829.22
2017-11-11T18:13:48.395Z,99823.34
2017-11-11T18:16:14.638Z,99826.92
2017-11-11T18:18:40.874Z,99825.16
2017-11-11T18:21:07.152Z,99821.59
2017-11-11T18:23:33.415Z,99825.84
2017-11-11T18:25:59.767Z,99822.46
2017-11-11T18:28:26.059Z,99827.95
2017-11-11T18:30:52.281Z,99824.76
2017-11-11T18:33:18.578Z,99824.00
2017-11-11T18:35:44.830Z,99824.80
2017-11-11T18:38:11.076Z,99825.56
2017-11-11T18:40:37.289Z,99818.33
2017-11-11T18:43:03.587Z,99824.16
2017-11-11T18:45:29.805Z,99826.14
2017-11-11T18:47:56.070Z,99825.21
2017-11-11T18:50:22.357Z,99828.38
2017-11-11T18:52:48.600Z,99825.09
2017-11-11T18:55:14.841Z,99824.69
2017-11-11T18:57:41.117Z,99827.73
2017-11-11T19:00:07.353Z,99830.45
2017-11-11T19:02:33.592Z,99826.91
2017-11-11T19:04:59.865Z,99826.13
2017-11-11T19:07:26.157Z,99830.04
2017-11-11T19:09:52.423Z,99828.47
2017-11-11T19:12:18.682Z,99823.91
2017-11-11T19:14:44.907Z,99816.31
2017-11-11T19:17:11.154Z,99819.02
2017-11-11T19:19:37.431Z,99808.47
2017-11-11T19:22:03.662Z,99811.72
2017-11-11T19:24:29.908Z,99820.86
2017-11-11T19:26:56.174Z,99824.41
2017-11-11T19:29:22.411Z,99816.41
2017-11-11T19:31:48.652Z,99811.46
2017-11-11T19:34:14.920Z,99805.95
2017-11-11T19:36:41.182Z,99812.20
2017-11-11T19:39:07.436Z,99802.00
2017-11-11T19:41:33.707Z,99792.98
2017-11-11T19:43:59.937Z,99791.28
2017-11-11T19:46:26.206Z,99789.12
2017-11-11T19:48:52.475Z,99793.66
2017-11-11T19:51:18.753Z,99791.44
2017-11-11T19:53:44.986Z,99787.71
2017-11-11T19:56:11.291Z,99795.23
2017-11-11T19:58:37.613Z,99788.61
2017-11-11T20:01:03.840Z,99788.88
2017-11-11T20:03:30.128Z,99790.44
2017-11-11T20:05:56.362Z,99787.30
2017-11-11T20:08:22.630Z,99785.84
2017-11-11T20:10:48.922Z,99783.00
2017-11-11T20:13:15.163Z,99782.46
2017-11-11T20:15:41.403Z,99776.52
2017-11-11T20:18:07.713Z,99771.31
2017-11-11T20:20:33.957Z,99766.98
2017-11-11T20:23:00.207Z,99767.17
2017-11-11T20:25:26.477Z,99765.27
2017-11-11T20:27:52.713Z,99759.31
2017-11-11T20:30:18.942Z,99763.74
2017-11-11T20:32:45.243Z,99765.83
2017-11-11T20:35:11.481Z,99761.70
2017-11-11T20:37:37.736Z,99763.27
2017-11-11T20:40:04.031Z,99762.23
2017-11-11T20:42:30.373Z,99763.35
2017-11-11T20:44:56.613Z,99750.92
2017-11-11T20:47:22.911Z,99748.99
2017-11-11T20:49:49.162Z,99759.11
2017-11-11T20:52:15.416Z,99752.75
2017-11-11T20:54:41.690Z,99751.52
2017-11-11T20:57:07.980Z,99744.15
2017-11-11T20:59:34.209Z,99749.58
2017-11-11T21:02:00.501Z,99744.39
2017-11-11T21:04:26.757Z,99740.84
2017-11-11T21:06:53.028Z,99738.47
2017-11-11T21:09:19.312Z,99739.80
2017-11-11T21:11:45.553Z,99740.27
2017-11-11T21:14:11.803Z,99747.41
2017-11-11T21:16:38.050Z,99746.01
2017-11-11T21:19:04.306Z,99742.16
2017-11-11T21:21:30.563Z,99741.34
2017-11-11T21:23:56.846Z,99739.26
2017-11-11T21:26:23.146Z,99741.16
2017-11-11T21:28:49.412Z,99731.38
2017-11-11T21:31:15.678Z,99734.70
2017-11-11T21:33:41.997Z,99731.78
2017-11-11T21:36:08.337Z,99725.94
2017-11-11T21:38:34.613Z,99721.16
2017-11-11T21:41:00.848Z,99720.98
2017-11-11T21:43:27.407Z,99719.22
2017-11-11T21:45:53.690Z,99718.64
2017-11-11T21:48:19.934Z,99712.98
2017-11-11T21:50:46.172Z,99711.87
2017-11-11T21:53:12.439Z,99706.44
2017-11-11T21:55:38.733Z,99707.62
2017-11-11T21:58:04.992Z,99701.53
2017-11-11T22:00:31.240Z,99700.41
2017-11-11T22:02:57.495Z,99701.81
2017-11-11T22:05:23.733Z,99685.83
2017-11-11T22:07:49.957Z,99682.44
2017-11-11T22:10:16.147Z,99684.23
2017-11-11T22:12:42.369Z,99684.95
2017-11-11T22:15:08.610Z,99684.83
2017-11-11T22:17:34.825Z,99678.38
2017-11-11T22:20:00.989Z,99674.58
2017-11-11T22:22:27.285Z,99673.95
2017-11-11T22:24:53.536Z,99674.00
2017-11-11T22:27:19.708Z,99663.21
2017-11-11T22:29:45.934Z,99660.66
2017-11-11T22:32:12.127Z,99664.15
2017-11-11T22:34:38.345Z,99666.90
2017-11-11T22:37:04.595Z,99659.23
2017-11-11T22:39:30.817Z,99654.82
2017-11-11T22:41:56.998Z,99658.81
2017-11-11T22:44:23.236Z,99663.88
2017-11-11T22:46:49.533Z,99662.66
2017-11-11T22:49:15.700Z,99668.08
2017-11-11T22:51:41.909Z,99663.20
2017-11-11T22:54:08.081Z,99660.82
2017-11-11T22:56:34.289Z,99654.75
2017-11-11T22:59:00.527Z,99651.25
2017-11-11T23:01:26.714Z,99644.03
2017-11-11T23:03:52.907Z,99641.34
2017-11-11T23:06:19.141Z,99638.95
2017-11-11T23:08:45.341Z,99636.86
2017-11-11T23:11:11.591Z,99634.30
2017-11-11T23:13:37.862Z,99627.78
2017-11-11T23:16:04.052Z,99631.00
2017-11-11T23:18:30.248Z,99621.61
2017-11-11T23:20:56.485Z,99624.27
2017-11-11T23:23:22.670Z,99616.38
2017-11-11T23:25:48.869Z,99614.80
2017-11-11T23:28:15.093Z,99605.08
2017-11-11T23:30:41.279Z,99598.96
2017-11-11T23:33:07.508Z,99599.38
2017-11-11T23:35:33.755Z,99588.95
2017-11-11T23:37:59.935Z,99586.67
2017-11-11T23:40:26.091Z,99585.91
2017-11-11T23:42:52.311Z,99589.20
2017-11-11T23:45:18.462Z,99585.05
2017-11-11T23:47:44.695Z,99579.98
2017-11-11T23:50:10.975Z,99581.86
2017-11-11T23:52:37.219Z,99578.47
2017-11-11T23:55:03.434Z,99573.57
2017-11-11T23:57:29.717Z,99575.67
2017-11-11T23:59:55.968Z,99574.50
